sensor_id;sensor_type;location;lat;lon;timestamp;pressure;altitude;pressure_sealevel;temperature;humidity
32324;BME280;25666;44.350;9.222;2022-12-13T00:00:08;100868.84;;;7.25;100.00
32324;BME280;25666;44.350;9.222;2022-12-13T00:02:39;100860.06;;;7.31;100.00
32324;BME280;25666;44.350;9.222;2022-12-13T00:05:09;100856.16;;;7.32;100.00
32324;BME280;25666;44.350;9.222;2022-12-13T00:07:40;100862.38;;;7.29;100.00
32324;BME280;25666;44.350;9.222;2022-12-13T00:10:15;100861.72;;;7.32;100.00
32324;BME280;25666;44.350;9.222;2022-12-13T00:12:44;100861.53;;;7.29;100.00
32324;BME280;25666;44.350;9.222;2022-12-13T00:15:23;100865.44;;;7.28;100.00
32324;BME280;25666;44.350;9.222;2022-12-13T00:42:20;100815.63;;;7.11;100.00
32324;BME280;25666;44.350;9.222;2022-12-13T00:44:46;100812.84;;;7.11;100.00
32324;BME280;25666;44.350;9.222;2022-12-13T00:47:11;100815.63;;;7.11;100.00
32324;BME280;25666;44.350;9.222;2022-12-13T00:49:37;100803.56;;;7.07;100.00
32324;BME280;25666;44.350;9.222;2022-12-13T00:52:03;100814.47;;;7.03;100.00
32324;BME280;25666;44.350;9.222;2022-12-13T00:54:28;100814.00;;;7.01;100.00
32324;BME280;25666;44.350;9.222;2022-12-13T00:56:54;100809.41;;;7.05;100.00
32324;BME280;25666;44.350;9.222;2022-12-13T00:59:22;100804.06;;;7.00;100.00
32324;BME280;25666;44.350;9.222;2022-12-13T01:01:48;100808.47;;;7.01;100.00
32324;BME280;25666;44.350;9.222;2022-12-13T01:04:17;100804.38;;;7.07;100.00
32324;BME280;25666;44.350;9.222;2022-12-13T01:06:45;100796.38;;;7.14;100.00
32324;BME280;25666;44.350;9.222;2022-12-13T01:09:23;100783.88;;;7.17;100.00
32324;BME280;25666;44.350;9.222;2022-12-13T01:12:02;100781.44;;;7.07;100.00
32324;BME280;25666;44.350;9.222;2022-12-13T01:14:30;100783.56;;;7.01;100.00
32324;BME280;25666;44.350;9.222;2022-12-13T01:16:56;100794.94;;;6.99;100.00
32324;BME280;25666;44.350;9.222;2022-12-13T01:22:00;100800.94;;;6.93;100.00
32324;BME280;25666;44.350;9.222;2022-12-13T01:24:26;100806.81;;;6.91;100.00
32324;BME280;25666;44.350;9.222;2022-12-13T01:32:35;100813.81;;;6.97;100.00
32324;BME280;25666;44.350;9.222;2022-12-13T01:35:01;100821.94;;;7.03;100.00
32324;BME280;25666;44.350;9.222;2022-12-13T01:37:26;100825.53;;;7.03;100.00
32324;BME280;25666;44.350;9.222;2022-12-13T01:39:53;100814.97;;;6.88;100.00
32324;BME280;25666;44.350;9.222;2022-12-13T01:42:18;100803.88;;;6.96;100.00
32324;BME280;25666;44.350;9.222;2022-12-13T01:45:20;100794.63;;;7.01;100.00
32324;BME280;25666;44.350;9.222;2022-12-13T01:47:49;100785.16;;;6.93;100.00
32324;BME280;25666;44.350;9.222;2022-12-13T01:50:38;100765.97;;;6.97;100.00
32324;BME280;25666;44.350;9.222;2022-12-13T01:53:07;100763.03;;;7.02;100.00
32324;BME280;25666;44.350;9.222;2022-12-13T02:30:41;100779.63;;;6.93;100.00
32324;BME280;25666;44.350;9.222;2022-12-13T02:43:52;100772.00;;;6.82;100.00
32324;BME280;25666;44.350;9.222;2022-12-13T02:46:26;100778.50;;;6.86;100.00
32324;BME280;25666;44.350;9.222;2022-12-13T02:48:55;100776.69;;;6.90;100.00
32324;BME280;25666;44.350;9.222;2022-12-13T02:51:22;100779.81;;;6.88;100.00
32324;BME280;25666;44.350;9.222;2022-12-13T02:53:48;100773.44;;;6.88;100.00
32324;BME280;25666;44.350;9.222;2022-12-13T02:56:16;100770.34;;;6.89;100.00
32324;BME280;25666;44.350;9.222;2022-12-13T02:58:48;100763.03;;;6.85;100.00
32324;BME280;25666;44.350;9.222;2022-12-13T03:26:29;100764.47;;;6.74;100.00
32324;BME280;25666;44.350;9.222;2022-12-13T03:28:54;100761.88;;;6.60;100.00
32324;BME280;25666;44.350;9.222;2022-12-13T03:31:20;100764.00;;;6.72;100.00
32324;BME280;25666;44.350;9.222;2022-12-13T03:33:46;100761.41;;;6.75;100.00
32324;BME280;25666;44.350;9.222;2022-12-13T03:36:11;100762.53;;;6.74;100.00
32324;BME280;25666;44.350;9.222;2022-12-13T03:38:38;100766.94;;;6.75;100.00
32324;BME280;25666;44.350;9.222;2022-12-13T03:41:08;100753.28;;;6.70;100.00
32324;BME280;25666;44.350;9.222;2022-12-13T03:43:35;100758.63;;;6.67;100.00
32324;BME280;25666;44.350;9.222;2022-12-13T03:46:00;100754.06;;;6.62;100.00
32324;BME280;25666;44.350;9.222;2022-12-13T03:48:26;100758.63;;;6.67;100.00
32324;BME280;25666;44.350;9.222;2022-12-13T03:50:53;100764.00;;;6.72;100.00
32324;BME280;25666;44.350;9.222;2022-12-13T03:53:20;100765.28;;;6.74;100.00
32324;BME280;25666;44.350;9.222;2022-12-13T03:55:46;100760.75;;;6.78;100.00
32324;BME280;25666;44.350;9.222;2022-12-13T03:58:12;100763.69;;;6.82;100.00
32324;BME280;25666;44.350;9.222;2022-12-13T04:00:37;100774.91;;;6.85;100.00
32324;BME280;25666;44.350;9.222;2022-12-13T04:03:03;100779.13;;;6.83;100.00
32324;BME280;25666;44.350;9.222;2022-12-13T04:05:29;100784.00;;;6.77;100.00
32324;BME280;25666;44.350;9.222;2022-12-13T04:07:55;100777.03;;;6.88;100.00
32324;BME280;25666;44.350;9.222;2022-12-13T04:10:20;100773.63;;;6.91;100.00
32324;BME280;25666;44.350;9.222;2022-12-13T04:12:46;100764.97;;;6.93;100.00
32324;BME280;25666;44.350;9.222;2022-12-13T04:15:31;100754.72;;;6.93;100.00
32324;BME280;25666;44.350;9.222;2022-12-13T04:17:56;100754.41;;;6.95;100.00
32324;BME280;25666;44.350;9.222;2022-12-13T04:20:22;100753.78;;;6.98;100.00
32324;BME280;25666;44.350;9.222;2022-12-13T04:22:47;100753.91;;;6.93;100.00
32324;BME280;25666;44.350;9.222;2022-12-13T04:25:14;100763.03;;;6.93;100.00
32324;BME280;25666;44.350;9.222;2022-12-13T04:27:40;100754.41;;;6.95;100.00
32324;BME280;25666;44.350;9.222;2022-12-13T04:30:06;100750.84;;;6.94;100.00
32324;BME280;25666;44.350;9.222;2022-12-13T04:32:35;100740.91;;;6.93;100.00
32324;BME280;25666;44.350;9.222;2022-12-13T04:35:01;100742.03;;;6.92;100.00
32324;BME280;25666;44.350;9.222;2022-12-13T04:37:26;100730.97;;;6.84;100.00
32324;BME280;25666;44.350;9.222;2022-12-13T04:39:52;100710.63;;;6.88;100.00
32324;BME280;25666;44.350;9.222;2022-12-13T04:42:17;100703.81;;;6.86;100.00
32324;BME280;25666;44.350;9.222;2022-12-13T04:44:45;100713.88;;;6.90;100.00
32324;BME280;25666;44.350;9.222;2022-12-13T04:47:11;100716.81;;;6.77;100.00
32324;BME280;25666;44.350;9.222;2022-12-13T04:49:36;100724.44;;;6.80;100.00
32324;BME280;25666;44.350;9.222;2022-12-13T04:52:02;100722.84;;;6.87;100.00
32324;BME280;25666;44.350;9.222;2022-12-13T04:54:29;100706.72;;;6.98;100.00
32324;BME280;25666;44.350;9.222;2022-12-13T04:56:57;100707.19;;;7.00;100.00
32324;BME280;25666;44.350;9.222;2022-12-13T04:59:22;100708.16;;;6.95;100.00
32324;BME280;25666;44.350;9.222;2022-12-13T05:01:48;100701.50;;;6.96;100.00
32324;BME280;25666;44.350;9.222;2022-12-13T05:04:13;100697.47;;;6.85;100.00
32324;BME280;25666;44.350;9.222;2022-12-13T05:06:42;100690.44;;;6.96;100.00
32324;BME280;25666;44.350;9.222;2022-12-13T05:09:08;100702.31;;;6.97;100.00
32324;BME280;25666;44.350;9.222;2022-12-13T05:11:33;100696.31;;;6.95;100.00
32324;BME280;25666;44.350;9.222;2022-12-13T05:14:00;100700.22;;;6.94;100.00
32324;BME280;25666;44.350;9.222;2022-12-13T05:16:25;100690.28;;;7.02;100.00
32324;BME280;25666;44.350;9.222;2022-12-13T05:18:51;100693.53;;;6.95;100.00
32324;BME280;25666;44.350;9.222;2022-12-13T05:21:20;100699.22;;;6.98;100.00
32324;BME280;25666;44.350;9.222;2022-12-13T05:23:45;100685.53;;;7.02;100.00
32324;BME280;25666;44.350;9.222;2022-12-13T05:26:13;100675.94;;;6.99;100.00
32324;BME280;25666;44.350;9.222;2022-12-13T05:28:39;100678.56;;;7.05;100.00
32324;BME280;25666;44.350;9.222;2022-12-13T05:31:07;100682.47;;;7.04;100.00
32324;BME280;25666;44.350;9.222;2022-12-13T05:33:33;100688.81;;;7.04;100.00
32324;BME280;25666;44.350;9.222;2022-12-13T05:35:59;100684.75;;;7.02;100.00
32324;BME280;25666;44.350;9.222;2022-12-13T05:38:25;100680.50;;;6.95;100.00
32324;BME280;25666;44.350;9.222;2022-12-13T05:40:50;100679.22;;;7.02;100.00
32324;BME280;25666;44.350;9.222;2022-12-13T05:43:16;100687.81;;;7.00;100.00
32324;BME280;25666;44.350;9.222;2022-12-13T05:45:42;100697.09;;;6.95;100.00
32324;BME280;25666;44.350;9.222;2022-12-13T05:48:07;100693.19;;;6.96;100.00
32324;BME280;25666;44.350;9.222;2022-12-13T05:50:35;100689.78;;;6.99;100.00
32324;BME280;25666;44.350;9.222;2022-12-13T05:53:02;100689.28;;;7.06;100.00
32324;BME280;25666;44.350;9.222;2022-12-13T05:55:27;100692.72;;;7.03;100.00
32324;BME280;25666;44.350;9.222;2022-12-13T05:57:53;100690.56;;;7.09;100.00
32324;BME280;25666;44.350;9.222;2022-12-13T06:00:22;100693.03;;;7.10;100.00
32324;BME280;25666;44.350;9.222;2022-12-13T06:02:50;100702.28;;;7.14;100.00
32324;BME280;25666;44.350;9.222;2022-12-13T06:05:16;100705.03;;;7.14;100.00
32324;BME280;25666;44.350;9.222;2022-12-13T06:07:42;100696.75;;;7.14;100.00
32324;BME280;25666;44.350;9.222;2022-12-13T06:10:11;100688.63;;;7.09;100.00
32324;BME280;25666;44.350;9.222;2022-12-13T06:12:40;100693.84;;;7.11;100.00
32324;BME280;25666;44.350;9.222;2022-12-13T06:15:06;100696.28;;;7.12;100.00
32324;BME280;25666;44.350;9.222;2022-12-13T06:17:34;100695.44;;;7.12;100.00
32324;BME280;25666;44.350;9.222;2022-12-13T06:20:01;100692.38;;;7.13;100.00
32324;BME280;25666;44.350;9.222;2022-12-13T06:22:27;100705.56;;;7.16;100.00
32324;BME280;25666;44.350;9.222;2022-12-13T06:24:52;100697.56;;;7.15;100.00
32324;BME280;25666;44.350;9.222;2022-12-13T06:27:20;100690.91;;;7.07;100.00
32324;BME280;25666;44.350;9.222;2022-12-13T06:29:48;100685.19;;;7.12;100.00
32324;BME280;25666;44.350;9.222;2022-12-13T06:32:14;100689.09;;;7.11;100.00
32324;BME280;25666;44.350;9.222;2022-12-13T06:54:15;100723.13;;;7.20;100.00
32324;BME280;25666;44.350;9.222;2022-12-13T06:56:43;100736.00;;;7.16;100.00
32324;BME280;25666;44.350;9.222;2022-12-13T06:59:09;100738.28;;;7.06;100.00
32324;BME280;25666;44.350;9.222;2022-12-13T07:01:35;100735.19;;;6.98;100.00
32324;BME280;25666;44.350;9.222;2022-12-13T07:04:00;100727.88;;;7.03;100.00
32324;BME280;25666;44.350;9.222;2022-12-13T07:06:26;100745.59;;;6.93;100.00
32324;BME280;25666;44.350;9.222;2022-12-13T07:08:56;100750.31;;;6.92;100.00
32324;BME280;25666;44.350;9.222;2022-12-13T07:11:28;100745.63;;;7.02;100.00
32324;BME280;25666;44.350;9.222;2022-12-13T07:13:54;100736.81;;;7.08;100.00
32324;BME280;25666;44.350;9.222;2022-12-13T07:16:21;100734.19;;;7.12;100.00
32324;BME280;25666;44.350;9.222;2022-12-13T07:18:47;100739.44;;;7.13;100.00
32324;BME280;25666;44.350;9.222;2022-12-13T07:21:13;100743.66;;;7.11;100.00
32324;BME280;25666;44.350;9.222;2022-12-13T07:23:39;100744.63;;;7.15;100.00
32324;BME280;25666;44.350;9.222;2022-12-13T07:26:06;100746.25;;;7.16;100.00
32324;BME280;25666;44.350;9.222;2022-12-13T07:28:36;100752.78;;;7.20;100.00
32324;BME280;25666;44.350;9.222;2022-12-13T07:31:03;100746.88;;;7.21;100.00
32324;BME280;25666;44.350;9.222;2022-12-13T07:33:29;100756.66;;;7.19;100.00
32324;BME280;25666;44.350;9.222;2022-12-13T07:38:36;100747.72;;;7.22;100.00
32324;BME280;25666;44.350;9.222;2022-12-13T07:41:03;100746.41;;;7.19;100.00
32324;BME280;25666;44.350;9.222;2022-12-13T07:43:30;100751.47;;;7.26;100.00
32324;BME280;25666;44.350;9.222;2022-12-13T07:46:02;100759.28;;;7.32;100.00
32324;BME280;25666;44.350;9.222;2022-12-13T07:48:28;100763.16;;;7.31;100.00
32324;BME280;25666;44.350;9.222;2022-12-13T07:51:00;100762.03;;;7.32;100.00
32324;BME280;25666;44.350;9.222;2022-12-13T07:53:26;100768.22;;;7.38;100.00
32324;BME280;25666;44.350;9.222;2022-12-13T07:55:53;100757.13;;;7.38;100.00
32324;BME280;25666;44.350;9.222;2022-12-13T07:58:18;100752.41;;;7.38;100.00
32324;BME280;25666;44.350;9.222;2022-12-13T08:00:45;100761.66;;;7.42;100.00
32324;BME280;25666;44.350;9.222;2022-12-13T08:03:11;100754.53;;;7.24;100.00
32324;BME280;25666;44.350;9.222;2022-12-13T08:05:37;100758.28;;;7.37;100.00
32324;BME280;25666;44.350;9.222;2022-12-13T08:08:05;100756.19;;;7.25;100.00
32324;BME280;25666;44.350;9.222;2022-12-13T08:10:31;100755.53;;;7.28;100.00
32324;BME280;25666;44.350;9.222;2022-12-13T08:12:57;100765.13;;;7.31;100.00
32324;BME280;25666;44.350;9.222;2022-12-13T08:15:23;100761.19;;;7.40;100.00
32324;BME280;25666;44.350;9.222;2022-12-13T08:17:50;100765.25;;;7.43;100.00
32324;BME280;25666;44.350;9.222;2022-12-13T08:20:16;100764.28;;;7.47;100.00
32324;BME280;25666;44.350;9.222;2022-12-13T08:22:42;100775.19;;;7.44;100.00
32324;BME280;25666;44.350;9.222;2022-12-13T08:25:08;100776.00;;;7.53;100.00
32324;BME280;25666;44.350;9.222;2022-12-13T08:27:34;100776.03;;;7.44;100.00
32324;BME280;25666;44.350;9.222;2022-12-13T08:29:59;100783.84;;;7.51;100.00
32324;BME280;25666;44.350;9.222;2022-12-13T08:32:25;100780.25;;;7.50;100.00
32324;BME280;25666;44.350;9.222;2022-12-13T08:34:51;100782.34;;;7.53;100.00
32324;BME280;25666;44.350;9.222;2022-12-13T08:37:16;100787.25;;;7.48;100.00
32324;BME280;25666;44.350;9.222;2022-12-13T08:39:43;100788.72;;;7.54;100.00
32324;BME280;25666;44.350;9.222;2022-12-13T08:42:16;100792.78;;;7.57;100.00
32324;BME280;25666;44.350;9.222;2022-12-13T08:44:42;100793.09;;;7.55;100.00
32324;BME280;25666;44.350;9.222;2022-12-13T08:47:08;100794.06;;;7.59;100.00
32324;BME280;25666;44.350;9.222;2022-12-13T08:49:33;100810.22;;;7.48;100.00
32324;BME280;25666;44.350;9.222;2022-12-13T08:51:59;100802.56;;;7.54;100.00
32324;BME280;25666;44.350;9.222;2022-12-13T08:54:25;100803.50;;;7.58;100.00
32324;BME280;25666;44.350;9.222;2022-12-13T08:56:50;100807.75;;;7.55;100.00
32324;BME280;25666;44.350;9.222;2022-12-13T08:59:16;100805.81;;;7.56;100.00
32324;BME280;25666;44.350;9.222;2022-12-13T09:01:42;100807.88;;;7.68;100.00
32324;BME280;25666;44.350;9.222;2022-12-13T09:04:08;100823.69;;;7.76;100.00
32324;BME280;25666;44.350;9.222;2022-12-13T09:06:33;100813.28;;;7.73;100.00
32324;BME280;25666;44.350;9.222;2022-12-13T09:08:59;100823.84;;;7.79;100.00
32324;BME280;25666;44.350;9.222;2022-12-13T09:11:25;100821.72;;;7.85;100.00
32324;BME280;25666;44.350;9.222;2022-12-13T09:13:50;100819.91;;;7.80;100.00
32324;BME280;25666;44.350;9.222;2022-12-13T09:16:18;100820.59;;;7.86;100.00
32324;BME280;25666;44.350;9.222;2022-12-13T09:18:45;100820.06;;;7.92;100.00
32324;BME280;25666;44.350;9.222;2022-12-13T09:21:13;100820.19;;;8.04;100.00
32324;BME280;25666;44.350;9.222;2022-12-13T09:23:39;100816.41;;;8.09;100.00
32324;BME280;25666;44.350;9.222;2022-12-13T09:26:10;100819.66;;;8.20;100.00
32324;BME280;25666;44.350;9.222;2022-12-13T09:28:37;100818.97;;;8.31;100.00
32324;BME280;25666;44.350;9.222;2022-12-13T09:31:11;100824.34;;;8.36;100.00
32324;BME280;25666;44.350;9.222;2022-12-13T09:33:37;100820.53;;;8.41;100.00
32324;BME280;25666;44.350;9.222;2022-12-13T09:36:04;100818.34;;;8.17;100.00
32324;BME280;25666;44.350;9.222;2022-12-13T09:38:33;100817.03;;;8.15;100.00
32324;BME280;25666;44.350;9.222;2022-12-13T09:41:06;100817.53;;;8.17;100.00
32324;BME280;25666;44.350;9.222;2022-12-13T09:43:37;100811.50;;;8.15;100.00
32324;BME280;25666;44.350;9.222;2022-12-13T09:46:06;100811.13;;;8.25;100.00
32324;BME280;25666;44.350;9.222;2022-12-13T09:48:35;100815.66;;;8.38;100.00
32324;BME280;25666;44.350;9.222;2022-12-13T09:51:03;100817.56;;;8.46;100.00
32324;BME280;25666;44.350;9.222;2022-12-13T09:53:29;100812.16;;;8.58;100.00
32324;BME280;25666;44.350;9.222;2022-12-13T09:55:54;100805.25;;;8.64;100.00
32324;BME280;25666;44.350;9.222;2022-12-13T09:58:23;100810.44;;;8.66;100.00
32324;BME280;25666;44.350;9.222;2022-12-13T10:00:52;100808.16;;;8.38;100.00
32324;BME280;25666;44.350;9.222;2022-12-13T10:03:19;100810.84;;;8.55;100.00
32324;BME280;25666;44.350;9.222;2022-12-13T10:05:57;100812.81;;;8.55;100.00
32324;BME280;25666;44.350;9.222;2022-12-13T10:08:31;100800.91;;;8.54;100.00
32324;BME280;25666;44.350;9.222;2022-12-13T10:10:58;100807.16;;;8.72;100.00
32324;BME280;25666;44.350;9.222;2022-12-13T10:16:18;100801.22;;;8.82;100.00
32324;BME280;25666;44.350;9.222;2022-12-13T10:18:47;100805.13;;;8.81;100.00
32324;BME280;25666;44.350;9.222;2022-12-13T10:21:19;100803.69;;;8.75;100.00
32324;BME280;25666;44.350;9.222;2022-12-13T10:23:47;100792.81;;;8.91;100.00
32324;BME280;25666;44.350;9.222;2022-12-13T10:26:13;100798.22;;;8.87;100.00
32324;BME280;25666;44.350;9.222;2022-12-13T10:28:39;100807.25;;;9.05;100.00
32324;BME280;25666;44.350;9.222;2022-12-13T10:31:06;100795.66;;;9.03;100.00
32324;BME280;25666;44.350;9.222;2022-12-13T10:33:35;100799.25;;;9.03;100.00
32324;BME280;25666;44.350;9.222;2022-12-13T10:36:05;100796.06;;;8.93;100.00
32324;BME280;25666;44.350;9.222;2022-12-13T10:38:43;100796.25;;;9.08;100.00
32324;BME280;25666;44.350;9.222;2022-12-13T10:46:33;100790.03;;;8.70;100.00
32324;BME280;25666;44.350;9.222;2022-12-13T10:48:59;100800.47;;;8.73;100.00
32324;BME280;25666;44.350;9.222;2022-12-13T10:51:26;100807.44;;;8.79;100.00
32324;BME280;25666;44.350;9.222;2022-12-13T10:53:55;100809.84;;;8.60;100.00
32324;BME280;25666;44.350;9.222;2022-12-13T10:56:33;100807.81;;;8.69;100.00
32324;BME280;25666;44.350;9.222;2022-12-13T10:59:21;100799.25;;;8.83;100.00
32324;BME280;25666;44.350;9.222;2022-12-13T11:01:48;100802.22;;;8.78;100.00
32324;BME280;25666;44.350;9.222;2022-12-13T11:04:40;100809.47;;;8.70;100.00
32324;BME280;25666;44.350;9.222;2022-12-13T11:07:22;100806.25;;;8.80;100.00
32324;BME280;25666;44.350;9.222;2022-12-13T11:09:48;100811.03;;;8.80;100.00
32324;BME280;25666;44.350;9.222;2022-12-13T11:12:17;100803.22;;;8.73;100.00
32324;BME280;25666;44.350;9.222;2022-12-13T11:15:01;100802.34;;;8.60;100.00
32324;BME280;25666;44.350;9.222;2022-12-13T11:17:29;100789.53;;;8.68;100.00
32324;BME280;25666;44.350;9.222;2022-12-13T11:20:02;100784.84;;;8.89;100.00
32324;BME280;25666;44.350;9.222;2022-12-13T11:22:31;100788.69;;;8.76;100.00
32324;BME280;25666;44.350;9.222;2022-12-13T11:25:07;100785.84;;;8.85;100.00
32324;BME280;25666;44.350;9.222;2022-12-13T11:30:24;100770.28;;;8.92;100.00
32324;BME280;25666;44.350;9.222;2022-12-13T11:35:27;100758.22;;;8.88;100.00
32324;BME280;25666;44.350;9.222;2022-12-13T11:40:47;100751.09;;;9.20;100.00
32324;BME280;25666;44.350;9.222;2022-12-13T11:46:01;100751.47;;;9.31;100.00
32324;BME280;25666;44.350;9.222;2022-12-13T11:51:42;100751.13;;;9.32;100.00
32324;BME280;25666;44.350;9.222;2022-12-13T11:54:22;100750.22;;;9.40;100.00
32324;BME280;25666;44.350;9.222;2022-12-13T11:56:50;100751.03;;;9.41;100.00
32324;BME280;25666;44.350;9.222;2022-12-13T11:59:33;100737.66;;;9.22;100.00
32324;BME280;25666;44.350;9.222;2022-12-13T12:04:54;100743.97;;;9.43;100.00
32324;BME280;25666;44.350;9.222;2022-12-13T12:08:08;100739.91;;;9.29;100.00
32324;BME280;25666;44.350;9.222;2022-12-13T12:12:39;100736.09;;;9.33;100.00
32324;BME280;25666;44.350;9.222;2022-12-13T12:15:11;100725.78;;;9.34;100.00
32324;BME280;25666;44.350;9.222;2022-12-13T12:17:39;100733.38;;;9.25;100.00
32324;BME280;25666;44.350;9.222;2022-12-13T12:20:14;100736.13;;;9.45;100.00
32324;BME280;25666;44.350;9.222;2022-12-13T12:34:16;100740.66;;;9.50;100.00
32324;BME280;25666;44.350;9.222;2022-12-13T12:44:46;100721.41;;;9.33;100.00
32324;BME280;25666;44.350;9.222;2022-12-13T12:53:02;100711.25;;;9.49;100.00
32324;BME280;25666;44.350;9.222;2022-12-13T12:55:41;100709.63;;;9.48;100.00
32324;BME280;25666;44.350;9.222;2022-12-13T13:03:34;100695.63;;;9.56;100.00
32324;BME280;25666;44.350;9.222;2022-12-13T13:06:11;100685.56;;;9.52;100.00
32324;BME280;25666;44.350;9.222;2022-12-13T13:11:10;100684.41;;;9.65;100.00
32324;BME280;25666;44.350;9.222;2022-12-13T13:13:45;100692.28;;;9.51;100.00
32324;BME280;25666;44.350;9.222;2022-12-13T13:18:53;100685.56;;;9.52;100.00
32324;BME280;25666;44.350;9.222;2022-12-13T13:26:38;100691.59;;;9.54;100.00
32324;BME280;25666;44.350;9.222;2022-12-13T13:31:57;100688.94;;;9.57;100.00
32324;BME280;25666;44.350;9.222;2022-12-13T13:34:29;100696.13;;;9.58;100.00
32324;BME280;25666;44.350;9.222;2022-12-13T13:37:00;100694.00;;;9.55;100.00
32324;BME280;25666;44.350;9.222;2022-12-13T13:47:11;100707.19;;;9.46;100.00
32324;BME280;25666;44.350;9.222;2022-12-13T13:49:47;100711.94;;;9.46;100.00
32324;BME280;25666;44.350;9.222;2022-12-13T13:52:20;100720.84;;;9.39;100.00
32324;BME280;25666;44.350;9.222;2022-12-13T14:22:11;100713.91;;;9.12;100.00
32324;BME280;25666;44.350;9.222;2022-12-13T14:30:21;100712.97;;;9.08;100.00
32324;BME280;25666;44.350;9.222;2022-12-13T14:32:48;100720.97;;;9.10;100.00
32324;BME280;25666;44.350;9.222;2022-12-13T14:37:57;100735.16;;;9.08;100.00
32324;BME280;25666;44.350;9.222;2022-12-13T14:42:53;100736.44;;;8.99;100.00
32324;BME280;25666;44.350;9.222;2022-12-13T14:45:31;100752.06;;;9.03;100.00
32324;BME280;25666;44.350;9.222;2022-12-13T14:48:00;100736.44;;;8.99;100.00
32324;BME280;25666;44.350;9.222;2022-12-13T14:50:31;100736.22;;;8.83;100.00
32324;BME280;25666;44.350;9.222;2022-12-13T14:52:58;100732.66;;;8.83;100.00
32324;BME280;25666;44.350;9.222;2022-12-13T14:55:26;100723.38;;;8.79;100.00
32324;BME280;25666;44.350;9.222;2022-12-13T14:57:54;100725.41;;;8.70;100.00
32324;BME280;25666;44.350;9.222;2022-12-13T15:00:28;100727.09;;;8.83;100.00
32324;BME280;25666;44.350;9.222;2022-12-13T15:02:58;100714.81;;;8.84;100.00
32324;BME280;25666;44.350;9.222;2022-12-13T15:05:27;100715.03;;;8.79;100.00
32324;BME280;25666;44.350;9.222;2022-12-13T15:07:53;100720.91;;;8.77;100.00
32324;BME280;25666;44.350;9.222;2022-12-13T15:12:45;100712.25;;;8.79;100.00
32324;BME280;25666;44.350;9.222;2022-12-13T15:15:26;100715.28;;;8.65;100.00
32324;BME280;25666;44.350;9.222;2022-12-13T15:18:15;100718.59;;;8.58;100.00
32324;BME280;25666;44.350;9.222;2022-12-13T15:20:43;100710.50;;;8.53;100.00
32324;BME280;25666;44.350;9.222;2022-12-13T15:26:01;100718.34;;;8.51;100.00
32324;BME280;25666;44.350;9.222;2022-12-13T15:28:33;100718.22;;;8.48;100.00
32324;BME280;25666;44.350;9.222;2022-12-13T15:30:59;100720.16;;;8.47;100.00
32324;BME280;25666;44.350;9.222;2022-12-13T15:33:27;100733.38;;;8.50;100.00
32324;BME280;25666;44.350;9.222;2022-12-13T15:36:21;100724.38;;;8.53;100.00
32324;BME280;25666;44.350;9.222;2022-12-13T15:41:31;100725.03;;;8.50;100.00
32324;BME280;25666;44.350;9.222;2022-12-13T15:44:00;100722.94;;;8.47;100.00
32324;BME280;25666;44.350;9.222;2022-12-13T15:46:32;100717.53;;;8.51;100.00
32324;BME280;25666;44.350;9.222;2022-12-13T15:49:02;100727.38;;;8.40;100.00
32324;BME280;25666;44.350;9.222;2022-12-13T15:51:29;100725.28;;;8.37;100.00
32324;BME280;25666;44.350;9.222;2022-12-13T15:59:00;100725.09;;;8.42;100.00
32324;BME280;25666;44.350;9.222;2022-12-13T16:01:27;100733.28;;;8.38;100.00
32324;BME280;25666;44.350;9.222;2022-12-13T16:03:53;100719.41;;;8.38;100.00
32324;BME280;25666;44.350;9.222;2022-12-13T16:06:21;100721.59;;;8.33;100.00
32324;BME280;25666;44.350;9.222;2022-12-13T16:08:53;100729.53;;;8.34;100.00
32324;BME280;25666;44.350;9.222;2022-12-13T16:11:33;100738.53;;;8.31;100.00
32324;BME280;25666;44.350;9.222;2022-12-13T16:17:26;100747.22;;;8.30;100.00
32324;BME280;25666;44.350;9.222;2022-12-13T16:19:54;100744.91;;;8.32;100.00
32324;BME280;25666;44.350;9.222;2022-12-13T16:22:20;100746.06;;;8.22;100.00
32324;BME280;25666;44.350;9.222;2022-12-13T16:24:48;100753.06;;;8.28;100.00
32324;BME280;25666;44.350;9.222;2022-12-13T16:27:15;100749.16;;;8.21;100.00
32324;BME280;25666;44.350;9.222;2022-12-13T16:29:42;100745.09;;;8.18;100.00
32324;BME280;25666;44.350;9.222;2022-12-13T16:32:07;100742.00;;;8.20;100.00
32324;BME280;25666;44.350;9.222;2022-12-13T16:34:38;100731.38;;;8.22;100.00
32324;BME280;25666;44.350;9.222;2022-12-13T16:37:04;100736.13;;;8.30;100.00
32324;BME280;25666;44.350;9.222;2022-12-13T16:39:29;100718.66;;;8.29;100.00
32324;BME280;25666;44.350;9.222;2022-12-13T16:41:55;100732.00;;;8.27;100.00
32324;BME280;25666;44.350;9.222;2022-12-13T16:44:41;100729.13;;;8.15;100.00
32324;BME280;25666;44.350;9.222;2022-12-13T16:47:08;100729.22;;;8.27;100.00
32324;BME280;25666;44.350;9.222;2022-12-13T16:49:36;100733.03;;;8.23;100.00
32324;BME280;25666;44.350;9.222;2022-12-13T16:52:02;100720.13;;;8.27;100.00
32324;BME280;25666;44.350;9.222;2022-12-13T16:54:29;100725.03;;;8.30;100.00
32324;BME280;25666;44.350;9.222;2022-12-13T16:56:55;100720.13;;;8.27;100.00
32324;BME280;25666;44.350;9.222;2022-12-13T16:59:23;100729.22;;;8.27;100.00
32324;BME280;25666;44.350;9.222;2022-12-13T17:01:49;100710.97;;;8.26;100.00
32324;BME280;25666;44.350;9.222;2022-12-13T17:04:17;100713.25;;;8.24;100.00
32324;BME280;25666;44.350;9.222;2022-12-13T17:06:43;100716.22;;;8.28;100.00
32324;BME280;25666;44.350;9.222;2022-12-13T17:09:09;100720.78;;;8.24;100.00
32324;BME280;25666;44.350;9.222;2022-12-13T17:11:35;100721.44;;;8.21;100.00
32324;BME280;25666;44.350;9.222;2022-12-13T17:14:03;100726.66;;;8.22;100.00
32324;BME280;25666;44.350;9.222;2022-12-13T17:19:11;100733.53;;;8.16;100.00